createdAt,value
2019-02-02T00:00:56.031Z,69.87
2019-02-02T00:03:28.371Z,69.87
2019-02-02T00:06:00.595Z,69.96
2019-02-02T00:08:32.787Z,69.99
2019-02-02T00:11:04.808Z,69.93
2019-02-02T00:13:37.035Z,69.89
2019-02-02T00:16:09.300Z,69.98
2019-02-02T00:18:41.617Z,69.92
2019-02-02T00:21:14.082Z,69.97
2019-02-02T00:23:47.453Z,69.88
2019-02-02T00:26:19.545Z,69.77
2019-02-02T00:28:51.999Z,69.87
2019-02-02T00:31:24.358Z,69.81
2019-02-02T00:33:56.602Z,69.83
2019-02-02T00:36:29.005Z,69.89
2019-02-02T00:39:01.267Z,69.91
2019-02-02T00:41:35.111Z,69.97
2019-02-02T00:44:07.485Z,70.02
2019-02-02T00:46:39.992Z,70.02
2019-02-02T00:49:12.345Z,69.97
2019-02-02T00:51:44.683Z,69.96
2019-02-02T00:54:16.903Z,70.03
2019-02-02T00:56:49.311Z,69.89
2019-02-02T00:59:21.453Z,69.93
2019-02-02T01:01:53.781Z,70.06
2019-02-02T01:04:26.119Z,70.02
2019-02-02T01:06:58.527Z,70.09
2019-02-02T01:09:30.730Z,70.08
2019-02-02T01:12:03.137Z,70.03
2019-02-02T01:14:38.438Z,69.88
2019-02-02T01:17:10.646Z,69.91
2019-02-02T01:19:43.185Z,69.96
2019-02-02T01:22:15.687Z,69.85
2019-02-02T01:24:48.003Z,69.92
2019-02-02T01:27:20.391Z,69.96
2019-02-02T01:29:52.728Z,69.87
2019-02-02T01:32:25.045Z,69.67
2019-02-02T01:34:57.272Z,69.68
2019-02-02T01:37:29.888Z,69.79
2019-02-02T01:40:02.101Z,69.77
2019-02-02T01:42:34.529Z,69.79
2019-02-02T01:45:07.395Z,69.72
2019-02-02T01:47:39.870Z,69.80
2019-02-02T01:50:13.261Z,69.75
2019-02-02T01:52:45.470Z,69.91
2019-02-02T01:55:17.850Z,69.86
2019-02-02T01:57:50.167Z,69.92
2019-02-02T02:00:23.118Z,69.81
2019-02-02T02:02:55.359Z,69.73
2019-02-02T02:05:27.769Z,69.94
2019-02-02T02:08:00.042Z,69.81
2019-02-02T02:10:32.143Z,69.77
2019-02-02T02:13:04.424Z,69.72
2019-02-02T02:15:36.631Z,69.80
2019-02-02T02:18:09.917Z,69.77
2019-02-02T02:20:42.534Z,69.87
2019-02-02T02:23:15.635Z,69.83
2019-02-02T02:25:47.809Z,69.84
2019-02-02T02:28:27.865Z,69.67
2019-02-02T02:30:53.952Z,69.78
2019-02-02T02:33:26.167Z,69.89
2019-02-02T02:35:59.352Z,69.84
2019-02-02T02:38:31.492Z,69.85
2019-02-02T02:41:03.651Z,69.88
2019-02-02T02:43:35.862Z,69.72
2019-02-02T02:46:08.101Z,69.87
2019-02-02T02:48:40.371Z,69.79
2019-02-02T02:51:13.612Z,69.86
2019-02-02T02:53:45.730Z,69.84
2019-02-02T02:56:17.939Z,69.80
2019-02-02T02:58:50.207Z,69.76
2019-02-02T03:01:22.589Z,69.82
2019-02-02T03:03:54.766Z,69.77
2019-02-02T03:06:29.065Z,69.54
2019-02-02T03:09:01.259Z,69.80
2019-02-02T03:11:35.259Z,69.84
2019-02-02T03:14:07.364Z,69.80
2019-02-02T03:16:40.468Z,69.80
2019-02-02T03:19:12.783Z,69.79
2019-02-02T03:21:45.026Z,69.67
2019-02-02T03:24:18.154Z,69.71
2019-02-02T03:26:50.490Z,69.74
2019-02-02T03:29:23.267Z,69.93
2019-02-02T03:31:55.608Z,69.73
2019-02-02T03:34:27.771Z,69.76
2019-02-02T03:37:00.110Z,69.65
2019-02-02T03:39:32.267Z,69.82
2019-02-02T03:42:04.372Z,69.76
2019-02-02T03:44:37.548Z,69.62
2019-02-02T03:47:09.724Z,69.86
2019-02-02T03:49:42.245Z,69.87
2019-02-02T03:52:14.770Z,69.84
2019-02-02T03:54:47.077Z,69.89
2019-02-02T03:57:19.241Z,69.87
2019-02-02T03:59:52.417Z,69.77
2019-02-02T04:02:25.800Z,69.74
2019-02-02T04:04:57.980Z,70.01
2019-02-02T04:07:30.162Z,69.71
2019-02-02T04:10:02.316Z,69.82
2019-02-02T04:12:34.462Z,69.87
2019-02-02T04:15:06.753Z,69.70
2019-02-02T04:17:39.129Z,69.65
2019-02-02T04:20:13.302Z,69.53
2019-02-02T04:22:46.623Z,69.30
2019-02-02T04:25:19.412Z,69.39
2019-02-02T04:27:51.580Z,69.27
2019-02-02T04:30:25.259Z,69.37
2019-02-02T04:32:57.325Z,69.43
2019-02-02T04:35:29.609Z,69.40
2019-02-02T04:38:01.691Z,70.07
2019-02-02T04:40:33.874Z,70.09
2019-02-02T04:43:06.072Z,70.14
2019-02-02T04:45:38.474Z,69.97
2019-02-02T04:48:10.825Z,69.74
2019-02-02T04:50:43.013Z,69.66
2019-02-02T04:53:15.558Z,69.63
2019-02-02T04:55:47.730Z,69.44
2019-02-02T04:58:19.912Z,69.62
2019-02-02T05:00:52.684Z,69.53
2019-02-02T05:03:24.904Z,69.41
2019-02-02T05:05:58.151Z,69.13
2019-02-02T05:08:30.299Z,69.17
2019-02-02T05:11:02.656Z,68.72
2019-02-02T05:13:35.026Z,68.60
2019-02-02T05:16:07.274Z,68.62
2019-02-02T05:18:39.489Z,68.41
2019-02-02T05:21:11.903Z,68.29
2019-02-02T05:23:46.072Z,68.22
2019-02-02T05:26:22.035Z,68.16
2019-02-02T05:28:54.272Z,68.18
2019-02-02T05:31:26.687Z,68.03
2019-02-02T05:33:58.943Z,68.04
2019-02-02T05:36:31.217Z,67.94
2019-02-02T05:39:04.811Z,67.88
2019-02-02T05:41:38.678Z,67.76
2019-02-02T05:44:11.058Z,67.78
2019-02-02T05:46:43.472Z,67.78
2019-02-02T05:49:15.744Z,68.03
2019-02-02T05:51:47.774Z,69.31
2019-02-02T05:54:21.008Z,68.89
2019-02-02T05:56:53.257Z,69.20
2019-02-02T05:59:26.605Z,69.28
2019-02-02T06:01:58.737Z,69.41
2019-02-02T06:04:32.090Z,69.50
2019-02-02T06:07:04.399Z,69.39
2019-02-02T06:09:36.981Z,69.46
2019-02-02T06:12:10.363Z,69.52
2019-02-02T06:14:42.778Z,69.70
2019-02-02T06:17:16.071Z,69.66
2019-02-02T06:19:48.474Z,69.67
2019-02-02T06:22:20.663Z,69.67
2019-02-02T06:24:53.042Z,69.40
2019-02-02T06:27:25.256Z,69.52
2019-02-02T06:30:04.047Z,69.41
2019-02-02T06:32:31.625Z,69.26
2019-02-02T06:35:04.017Z,69.38
2019-02-02T06:37:36.224Z,69.41
2019-02-02T06:40:08.633Z,69.68
2019-02-02T06:42:40.819Z,69.80
2019-02-02T06:45:15.053Z,69.97
2019-02-02T06:47:47.344Z,70.18
2019-02-02T06:50:19.624Z,70.23
2019-02-02T06:52:51.988Z,70.06
2019-02-02T06:55:24.473Z,70.07
2019-02-02T06:57:56.930Z,69.96
2019-02-02T07:00:29.363Z,69.98
2019-02-02T07:03:01.746Z,70.22
2019-02-02T07:05:34.249Z,70.00
2019-02-02T07:08:06.855Z,69.78
2019-02-02T07:10:39.441Z,69.89
2019-02-02T07:13:12.966Z,69.86
2019-02-02T07:15:45.565Z,69.85
2019-02-02T07:18:17.840Z,70.14
2019-02-02T07:20:50.271Z,70.09
2019-02-02T07:23:22.607Z,69.87
2019-02-02T07:25:55.246Z,70.02
2019-02-02T07:28:27.790Z,70.13
2019-02-02T07:31:00.377Z,70.39
2019-02-02T07:33:32.759Z,70.35
2019-02-02T07:36:06.628Z,70.39
2019-02-02T07:38:38.553Z,70.35
2019-02-02T07:41:10.637Z,70.49
2019-02-02T07:43:42.977Z,70.47
2019-02-02T07:46:15.390Z,70.64
2019-02-02T07:48:47.715Z,70.66
2019-02-02T07:51:20.027Z,70.58
2019-02-02T07:53:52.319Z,70.36
2019-02-02T07:56:25.091Z,70.13
2019-02-02T07:58:57.479Z,69.13
2019-02-02T08:01:29.773Z,69.06
2019-02-02T08:04:02.151Z,69.39
2019-02-02T08:06:34.219Z,69.61
2019-02-02T08:09:07.515Z,69.62
2019-02-02T08:11:40.698Z,69.52
2019-02-02T08:14:13.141Z,69.70
2019-02-02T08:16:46.359Z,69.54
2019-02-02T08:19:18.575Z,69.49
2019-02-02T08:21:50.756Z,69.40
2019-02-02T08:24:22.945Z,69.58
2019-02-02T08:26:55.152Z,69.54
2019-02-02T08:29:27.452Z,69.42
2019-02-02T08:31:59.936Z,69.38
2019-02-02T08:34:32.194Z,69.55
2019-02-02T08:37:04.512Z,69.46
2019-02-02T08:39:36.909Z,69.53
2019-02-02T08:42:09.158Z,69.54
2019-02-02T08:44:41.764Z,69.58
2019-02-02T08:47:17.011Z,69.26
2019-02-02T08:49:49.293Z,69.51
2019-02-02T08:52:21.624Z,69.57
2019-02-02T08:54:54.141Z,69.56
2019-02-02T08:57:26.461Z,69.60
2019-02-02T08:59:59.877Z,69.44
2019-02-02T09:02:32.186Z,69.54
2019-02-02T09:05:04.345Z,69.59
2019-02-02T09:07:38.389Z,69.61
2019-02-02T09:10:11.742Z,69.58
2019-02-02T09:12:44.024Z,69.56
2019-02-02T09:15:16.271Z,69.57
2019-02-02T09:17:49.611Z,69.51
2019-02-02T09:20:21.709Z,69.45
2019-02-02T09:23:03.870Z,69.51
2019-02-02T09:25:27.883Z,69.59
2019-02-02T09:28:00.062Z,69.47
2019-02-02T09:30:33.580Z,69.60
2019-02-02T09:33:08.044Z,69.63
2019-02-02T09:35:40.332Z,69.61
2019-02-02T09:38:12.573Z,69.55
2019-02-02T09:40:45.805Z,69.61
2019-02-02T09:43:18.112Z,69.64
2019-02-02T09:45:50.135Z,69.62
2019-02-02T09:48:22.318Z,69.62
2019-02-02T09:50:54.525Z,69.63
2019-02-02T09:53:26.715Z,69.55
2019-02-02T09:55:58.878Z,69.58
2019-02-02T09:58:31.575Z,69.60
2019-02-02T10:01:04.932Z,69.68
2019-02-02T10:03:37.269Z,69.62
2019-02-02T10:06:09.581Z,69.67
2019-02-02T10:08:41.717Z,69.50
2019-02-02T10:11:13.900Z,69.54
2019-02-02T10:13:46.031Z,69.64
2019-02-02T10:16:18.346Z,69.63
2019-02-02T10:18:50.658Z,69.62
2019-02-02T10:21:22.792Z,69.65
2019-02-02T10:23:54.970Z,69.65
2019-02-02T10:26:27.263Z,69.68
2019-02-02T10:28:59.534Z,69.60
2019-02-02T10:31:39.191Z,69.57
2019-02-02T10:34:06.803Z,69.62
2019-02-02T10:36:39.324Z,69.67
2019-02-02T10:39:11.552Z,69.69
2019-02-02T10:41:43.860Z,69.64
2019-02-02T10:44:16.262Z,69.67
2019-02-02T10:46:48.498Z,69.68
2019-02-02T10:49:20.644Z,69.67
2019-02-02T10:51:52.917Z,69.69
2019-02-02T10:54:25.130Z,69.66
2019-02-02T10:56:57.578Z,69.64
2019-02-02T10:59:29.662Z,69.70
2019-02-02T11:02:01.951Z,69.69
2019-02-02T11:04:35.162Z,69.67
2019-02-02T11:07:07.360Z,69.71
2019-02-02T11:09:39.623Z,69.74
2019-02-02T11:12:12.018Z,69.70
2019-02-02T11:14:45.218Z,69.70
2019-02-02T11:17:17.453Z,69.73
2019-02-02T11:19:49.882Z,69.76
2019-02-02T11:22:22.283Z,69.67
2019-02-02T11:24:54.462Z,69.85
2019-02-02T11:27:26.692Z,69.88
2019-02-02T11:29:58.848Z,69.91
2019-02-02T11:32:30.971Z,69.99
2019-02-02T11:35:03.370Z,70.04
2019-02-02T11:37:35.697Z,70.07
2019-02-02T11:40:08.679Z,70.10
2019-02-02T11:42:41.287Z,70.14
2019-02-02T11:45:14.152Z,70.19
2019-02-02T11:47:46.384Z,70.21
2019-02-02T11:50:18.661Z,70.25
2019-02-02T11:52:50.963Z,70.25
2019-02-02T11:55:23.275Z,70.31
2019-02-02T11:57:55.493Z,70.31
2019-02-02T12:00:31.852Z,70.37
2019-02-02T12:03:04.502Z,70.15
2019-02-02T12:05:37.181Z,70.50
2019-02-02T12:08:09.375Z,70.69
2019-02-02T12:10:41.684Z,70.69
2019-02-02T12:13:14.019Z,70.77
2019-02-02T12:15:47.595Z,70.77
2019-02-02T12:18:20.888Z,70.83
2019-02-02T12:20:53.125Z,70.80
2019-02-02T12:23:25.448Z,70.85
2019-02-02T12:25:57.868Z,70.88
2019-02-02T12:28:30.224Z,70.91
2019-02-02T12:31:03.683Z,70.87
2019-02-02T12:33:35.893Z,70.90
2019-02-02T12:36:08.020Z,70.91
2019-02-02T12:38:40.213Z,71.01
2019-02-02T12:41:12.571Z,71.03
2019-02-02T12:43:44.859Z,71.09
2019-02-02T12:46:17.488Z,71.11
2019-02-02T12:48:49.819Z,71.13
2019-02-02T12:51:22.121Z,71.18
2019-02-02T12:53:55.853Z,71.22
2019-02-02T12:56:28.397Z,71.27
2019-02-02T12:59:00.622Z,71.32
2019-02-02T13:01:32.903Z,71.38
2019-02-02T13:04:05.569Z,71.38
2019-02-02T13:06:38.082Z,71.44
2019-02-02T13:09:10.828Z,71.41
2019-02-02T13:11:43.066Z,71.51
2019-02-02T13:14:18.691Z,71.52
2019-02-02T13:16:51.350Z,71.57
2019-02-02T13:19:23.549Z,71.54
2019-02-02T13:21:55.760Z,71.57
2019-02-02T13:24:28.037Z,71.57
2019-02-02T13:27:00.476Z,71.59
2019-02-02T13:29:32.921Z,71.63
2019-02-02T13:32:05.521Z,71.62
2019-02-02T13:34:37.685Z,71.70
2019-02-02T13:37:10.088Z,71.69
2019-02-02T13:39:42.530Z,71.77
2019-02-02T13:42:18.460Z,71.62
2019-02-02T13:44:50.482Z,71.65
2019-02-02T13:47:23.158Z,71.63
2019-02-02T13:49:55.109Z,71.67
2019-02-02T13:52:27.345Z,71.72
2019-02-02T13:54:59.506Z,72.04
2019-02-02T13:57:32.121Z,71.89
2019-02-02T14:00:04.206Z,71.82
2019-02-02T14:02:38.012Z,73.25
2019-02-02T14:05:11.509Z,73.31
2019-02-02T14:07:43.706Z,73.10
2019-02-02T14:10:17.477Z,73.32
2019-02-02T14:12:49.754Z,73.33
2019-02-02T14:15:21.861Z,73.35
2019-02-02T14:17:54.562Z,73.33
2019-02-02T14:20:27.003Z,73.46
2019-02-02T14:22:59.226Z,73.33
2019-02-02T14:25:31.385Z,73.30
2019-02-02T14:28:03.627Z,73.20
2019-02-02T14:30:35.986Z,73.12
2019-02-02T14:33:14.252Z,73.08
2019-02-02T14:35:41.852Z,72.97
2019-02-02T14:38:20.060Z,72.98
2019-02-02T14:40:50.949Z,72.86
2019-02-02T14:43:23.056Z,72.82
2019-02-02T14:45:55.275Z,72.77
2019-02-02T14:48:29.417Z,72.75
2019-02-02T14:51:01.662Z,72.71
2019-02-02T14:53:33.784Z,72.63
2019-02-02T14:56:05.938Z,72.60
2019-02-02T14:58:38.571Z,72.55
2019-02-02T15:01:10.680Z,72.53
2019-02-02T15:03:42.856Z,72.46
2019-02-02T15:06:14.953Z,72.46
2019-02-02T15:08:47.169Z,72.44
2019-02-02T15:11:19.307Z,72.35
2019-02-02T15:13:52.637Z,72.36
2019-02-02T15:16:24.932Z,72.31
2019-02-02T15:18:57.040Z,72.30
2019-02-02T15:21:29.749Z,72.29
2019-02-02T15:24:01.841Z,72.23
2019-02-02T15:26:33.982Z,72.21
2019-02-02T15:29:06.579Z,72.21
2019-02-02T15:31:38.860Z,72.16
2019-02-02T15:34:11.161Z,72.13
2019-02-02T15:36:43.226Z,72.11
2019-02-02T15:39:15.486Z,72.11
2019-02-02T15:41:52.974Z,72.07
2019-02-02T15:44:21.808Z,72.02
2019-02-02T15:46:53.960Z,72.00
2019-02-02T15:49:26.207Z,72.02
2019-02-02T15:51:58.322Z,71.97
2019-02-02T15:54:30.500Z,71.97
2019-02-02T15:57:02.569Z,71.97
2019-02-02T15:59:38.840Z,71.92
2019-02-02T16:02:11.179Z,71.92
2019-02-02T16:04:43.434Z,71.92
2019-02-02T16:07:16.744Z,71.88
2019-02-02T16:09:48.763Z,71.85
2019-02-02T16:12:21.183Z,71.83
2019-02-02T16:14:53.457Z,71.80
2019-02-02T16:17:26.941Z,71.78
2019-02-02T16:19:59.106Z,71.79
2019-02-02T16:22:31.433Z,71.79
2019-02-02T16:25:04.743Z,71.73
2019-02-02T16:27:36.934Z,71.75
2019-02-02T16:30:09.835Z,71.72
2019-02-02T16:32:42.124Z,71.69
2019-02-02T16:35:14.272Z,71.73
2019-02-02T16:37:46.559Z,71.70
2019-02-02T16:40:19.549Z,71.70
2019-02-02T16:42:53.758Z,71.67
2019-02-02T16:45:27.035Z,71.61
2019-02-02T16:47:59.229Z,71.62
2019-02-02T16:50:31.463Z,71.61
2019-02-02T16:53:03.762Z,71.61
2019-02-02T16:55:38.737Z,71.60
2019-02-02T16:58:10.791Z,71.61
2019-02-02T17:00:43.015Z,71.57
2019-02-02T17:03:15.278Z,71.57
2019-02-02T17:05:47.603Z,71.54
2019-02-02T17:08:19.651Z,71.56
2019-02-02T17:10:51.876Z,71.54
2019-02-02T17:13:24.161Z,71.51
2019-02-02T17:15:56.567Z,71.49
2019-02-02T17:18:28.867Z,71.49
2019-02-02T17:21:01.108Z,71.50
2019-02-02T17:23:34.431Z,71.47
2019-02-02T17:26:07.238Z,71.45
2019-02-02T17:28:39.972Z,71.43
2019-02-02T17:31:12.217Z,71.39
2019-02-02T17:33:45.079Z,71.38
2019-02-02T17:36:17.796Z,71.21
2019-02-02T17:38:50.000Z,71.18
2019-02-02T17:41:22.129Z,71.34
2019-02-02T17:43:54.361Z,71.35
2019-02-02T17:46:26.564Z,71.36
2019-02-02T17:48:58.766Z,71.36
2019-02-02T17:51:30.959Z,71.39
2019-02-02T17:54:03.107Z,71.38
2019-02-02T17:56:35.470Z,71.36
2019-02-02T17:59:07.804Z,71.42
2019-02-02T18:01:39.910Z,71.46
2019-02-02T18:04:12.209Z,71.51
2019-02-02T18:06:44.721Z,71.48
2019-02-02T18:09:17.115Z,71.46
2019-02-02T18:11:49.291Z,71.51
2019-02-02T18:14:21.726Z,71.30
2019-02-02T18:16:53.911Z,71.52
2019-02-02T18:19:26.300Z,71.51
2019-02-02T18:21:58.503Z,71.51
2019-02-02T18:24:30.797Z,70.97
2019-02-02T18:27:02.931Z,71.25
2019-02-02T18:29:35.867Z,71.07
2019-02-02T18:32:13.194Z,71.03
2019-02-02T18:34:50.880Z,70.87
2019-02-02T18:37:14.739Z,70.85
2019-02-02T18:39:47.009Z,70.83
2019-02-02T18:42:19.262Z,70.76
2019-02-02T18:44:52.497Z,70.60
2019-02-02T18:47:24.647Z,70.72
2019-02-02T18:49:58.036Z,70.67
2019-02-02T18:53:12.895Z,70.62
2019-02-02T18:55:48.715Z,70.33
2019-02-02T18:58:20.887Z,70.64
2019-02-02T19:00:53.099Z,70.44
2019-02-02T19:03:25.263Z,70.54
2019-02-02T19:05:57.555Z,70.67
2019-02-02T19:08:29.801Z,70.93
2019-02-02T19:11:03.731Z,71.25
2019-02-02T19:13:35.628Z,71.34
2019-02-02T19:16:08.998Z,71.46
2019-02-02T19:18:41.216Z,71.45
2019-02-02T19:21:14.447Z,71.57
2019-02-02T19:23:46.759Z,71.64
2019-02-02T19:26:18.883Z,71.77
2019-02-02T19:28:51.191Z,71.79
2019-02-02T19:31:23.421Z,71.82
2019-02-02T19:33:55.747Z,71.93
2019-02-02T19:36:28.150Z,71.90
2019-02-02T19:39:00.283Z,72.03
2019-02-02T19:41:32.284Z,72.12
2019-02-02T19:44:04.399Z,72.07
2019-02-02T19:46:36.850Z,72.08
2019-02-02T19:49:09.383Z,72.16
2019-02-02T19:51:41.773Z,72.22
2019-02-02T19:54:13.931Z,72.20
2019-02-02T19:56:46.164Z,72.26
2019-02-02T19:59:18.250Z,72.28
2019-02-02T20:01:50.392Z,72.25
2019-02-02T20:04:22.647Z,72.24
2019-02-02T20:06:54.886Z,72.33
2019-02-02T20:09:26.975Z,72.40
2019-02-02T20:12:00.373Z,72.32
2019-02-02T20:14:32.673Z,72.34
2019-02-02T20:17:06.160Z,72.30
2019-02-02T20:19:38.407Z,72.21
2019-02-02T20:22:10.557Z,72.29
2019-02-02T20:24:42.644Z,72.25
2019-02-02T20:27:14.868Z,72.25
2019-02-02T20:29:47.659Z,72.00
2019-02-02T20:32:19.915Z,72.09
2019-02-02T20:34:52.197Z,72.12
2019-02-02T20:37:24.570Z,72.21
2019-02-02T20:39:56.642Z,72.18
2019-02-02T20:42:28.828Z,72.08
2019-02-02T20:45:01.107Z,72.22
2019-02-02T20:47:33.299Z,72.14
2019-02-02T20:50:05.383Z,72.21
2019-02-02T20:52:46.905Z,72.19
2019-02-02T20:55:12.211Z,72.21
2019-02-02T20:57:45.982Z,72.12
2019-02-02T21:00:18.768Z,72.18
2019-02-02T21:02:50.833Z,72.15
2019-02-02T21:05:22.877Z,72.08
2019-02-02T21:07:55.003Z,72.04
2019-02-02T21:10:28.738Z,72.03
2019-02-02T21:13:01.200Z,71.98
2019-02-02T21:15:33.381Z,72.05
2019-02-02T21:18:05.574Z,72.02
2019-02-02T21:20:38.079Z,72.07
2019-02-02T21:23:10.377Z,72.06
2019-02-02T21:25:42.716Z,72.13
2019-02-02T21:28:14.788Z,72.08
2019-02-02T21:30:46.895Z,72.03
2019-02-02T21:33:19.102Z,72.00
2019-02-02T21:35:51.374Z,72.07
2019-02-02T21:38:23.422Z,72.12
2019-02-02T21:40:55.691Z,72.03
2019-02-02T21:43:27.743Z,72.02
2019-02-02T21:45:59.736Z,72.05
2019-02-02T21:48:31.935Z,72.02
2019-02-02T21:51:04.091Z,72.11
2019-02-02T21:53:36.608Z,72.06
2019-02-02T21:56:08.641Z,72.08
2019-02-02T21:58:41.812Z,72.10
2019-02-02T22:01:23.739Z,72.07
2019-02-02T22:03:47.992Z,72.03
2019-02-02T22:06:20.232Z,72.06
2019-02-02T22:08:52.187Z,72.11
2019-02-02T22:11:24.593Z,72.12
2019-02-02T22:13:56.601Z,72.09
2019-02-02T22:16:29.662Z,71.88
2019-02-02T22:19:01.683Z,72.03
2019-02-02T22:21:33.722Z,71.97
2019-02-02T22:24:06.225Z,72.08
2019-02-02T22:26:38.645Z,72.03
2019-02-02T22:29:10.499Z,71.96
2019-02-02T22:31:42.766Z,72.04
2019-02-02T22:34:15.124Z,72.02
2019-02-02T22:36:47.294Z,72.14
2019-02-02T22:39:20.019Z,72.10
2019-02-02T22:41:52.223Z,72.02
2019-02-02T22:44:24.256Z,71.98
2019-02-02T22:46:56.439Z,72.12
2019-02-02T22:49:28.728Z,72.12
2019-02-02T22:52:03.074Z,72.01
2019-02-02T22:54:34.679Z,72.18
2019-02-02T22:57:06.914Z,72.09
2019-02-02T22:59:39.230Z,72.10
2019-02-02T23:02:13.807Z,72.25
2019-02-02T23:05:03.027Z,72.20
2019-02-02T23:07:38.770Z,72.27
2019-02-02T23:10:21.882Z,72.24
2019-02-02T23:13:03.187Z,72.11
2019-02-02T23:15:57.035Z,72.31
2019-02-02T23:18:29.267Z,72.28
2019-02-02T23:21:01.622Z,72.36
2019-02-02T23:23:33.743Z,72.38
2019-02-02T23:26:07.050Z,72.35
2019-02-02T23:28:39.093Z,72.34
2019-02-02T23:31:11.312Z,72.27
2019-02-02T23:33:43.971Z,72.33
2019-02-02T23:36:16.027Z,72.38
2019-02-02T23:38:48.227Z,72.37
2019-02-02T23:41:20.479Z,72.37
2019-02-02T23:43:52.790Z,72.41
2019-02-02T23:46:24.993Z,72.41
2019-02-02T23:48:57.260Z,72.29
2019-02-02T23:51:29.724Z,72.37
2019-02-02T23:54:01.813Z,72.37
2019-02-02T23:56:34.271Z,72.33
2019-02-02T23:59:07.584Z,72.38
